Time;durP1;ratioP1;P1;durP2;ratioP2;P2;SDS_P1;SDS_P2;PMS_P1;PMS_P2;Temp;Humidity;BMP_temperature;BMP_pressure;BME280_temperature;BME280_humidity;BME280_pressure;Samples;Min_cycle;Max_cycle;Signal;HPM_P1;HPM_P2
2021/06/24 00:02:08;;;;;;;1.75;1.38;;;;;;;11.89;87.07;91034.50;4981127;28;20073;-86
2021/06/24 00:04:55;;;;;;;4.05;1.10;;;;;;;12.02;85.66;91024.03;4995642;28;20057;-86
2021/06/24 00:07:35;;;;;;;1.70;1.10;;;;;;;11.96;86.17;91026.88;4981236;28;20030;-86
2021/06/24 00:10:16;;;;;;;1.20;1.00;;;;;;;11.96;85.03;91021.63;4996046;28;20049;-88
2021/06/24 00:12:52;;;;;;;1.58;1.00;;;;;;;12.02;85.44;91021.41;4981956;28;20029;-86
2021/06/24 00:15:33;;;;;;;2.03;1.10;;;;;;;11.94;86.09;91023.84;4959780;28;20117;-86
2021/06/24 00:18:11;;;;;;;1.20;0.90;;;;;;;11.93;86.08;91009.25;4992449;28;20030;-85
2021/06/24 00:20:49;;;;;;;1.75;1.10;;;;;;;11.94;85.75;91013.41;4957757;28;20026;-86
2021/06/24 00:23:17;;;;;;;2.33;1.13;;;;;;;11.92;85.95;91010.34;4960803;28;20026;-86
2021/06/24 00:25:52;;;;;;;1.48;1.02;;;;;;;11.90;85.77;91011.75;4989555;28;20502;-86
2021/06/24 00:28:30;;;;;;;1.00;0.82;;;;;;;11.78;87.18;91009.19;4979787;28;20100;-86
2021/06/24 00:31:06;;;;;;;1.60;1.02;;;;;;;11.73;87.27;91005.72;4979436;28;20036;-86
2021/06/24 00:33:48;;;;;;;2.05;1.00;;;;;;;11.81;87.37;90996.22;4987536;28;20027;-86
2021/06/24 00:36:27;;;;;;;1.23;1.00;;;;;;;11.78;87.52;90990.91;4959290;28;20023;-87
2021/06/24 00:39:08;;;;;;;2.25;1.20;;;;;;;11.75;87.61;90991.56;4977324;28;20065;-85
2021/06/24 00:41:42;;;;;;;1.10;0.90;;;;;;;11.60;87.83;90990.44;4966064;28;20459;-86
2021/06/24 00:44:22;;;;;;;2.08;1.00;;;;;;;11.79;87.83;90982.72;4947522;28;20026;-88
2021/06/24 00:46:58;;;;;;;1.55;1.05;;;;;;;11.72;87.60;90979.94;4996314;28;20499;-86
2021/06/24 00:49:29;;;;;;;2.70;1.00;;;;;;;11.70;88.64;90976.91;4984412;28;20026;-87
2021/06/24 00:52:07;;;;;;;1.48;1.23;;;;;;;11.70;88.44;90975.06;4998978;28;20026;-86
2021/06/24 00:54:49;;;;;;;1.55;1.00;;;;;;;11.62;88.71;90975.19;4999482;28;20044;-86
2021/06/24 00:57:28;;;;;;;3.22;1.10;;;;;;;11.58;88.94;90974.34;5014731;28;20021;-86
2021/06/24 01:00:05;;;;;;;3.13;1.02;;;;;;;11.64;88.21;90962.56;4991025;28;20662;-86
2021/06/24 01:02:43;;;;;;;1.50;0.93;;;;;;;11.76;87.50;90967.72;4983375;28;20030;-86
2021/06/24 01:05:18;;;;;;;1.38;0.85;;;;;;;11.87;86.78;90962.81;4998865;28;20022;-85
2021/06/24 01:07:55;;;;;;;2.20;0.98;;;;;;;11.80;86.52;90963.38;4983352;28;20026;-86
2021/06/24 01:10:33;;;;;;;2.58;1.00;;;;;;;11.74;86.31;90964.72;4966757;28;20115;-86
2021/06/24 01:13:11;;;;;;;1.65;1.02;;;;;;;11.55;87.98;90962.69;4998604;28;20514;-86
2021/06/24 01:15:43;;;;;;;1.17;0.80;;;;;;;11.66;86.15;90957.75;4962717;28;20034;-85
2021/06/24 01:18:17;;;;;;;3.53;0.80;;;;;;;11.61;86.46;90963.97;4981175;28;20034;-84
2021/06/24 01:20:53;;;;;;;1.33;0.85;;;;;;;11.61;86.64;90953.53;4982238;28;20026;-86
2021/06/24 01:23:31;;;;;;;1.10;0.80;;;;;;;11.72;86.83;90943.38;4984147;28;20037;-86
2021/06/24 01:26:04;;;;;;;2.35;1.10;;;;;;;11.53;87.78;90938.78;4983702;28;20014;-86
2021/06/24 01:28:44;;;;;;;1.55;0.90;;;;;;;11.59;87.62;90939.31;4998538;28;20048;-88
2021/06/24 01:31:15;;;;;;;1.55;0.95;;;;;;;11.56;87.80;90937.38;4997646;28;20515;-85
2021/06/24 01:33:58;;;;;;;3.30;1.10;;;;;;;11.45;87.66;90930.03;4980297;28;20458;-86
2021/06/24 01:36:34;;;;;;;1.13;0.95;;;;;;;11.54;87.73;90926.50;4996744;28;20110;-86
2021/06/24 01:39:14;;;;;;;1.58;0.90;;;;;;;11.42;88.49;90925.47;4983566;28;20080;-87
2021/06/24 01:41:58;;;;;;;1.05;0.80;;;;;;;11.43;88.52;90926.97;4983140;28;20033;-85
2021/06/24 01:44:38;;;;;;;1.10;0.85;;;;;;;11.40;88.07;90932.84;4998400;28;20029;-86
2021/06/24 01:47:28;;;;;;;1.60;0.80;;;;;;;11.32;88.31;90925.94;4982523;28;20025;-86
2021/06/24 01:50:09;;;;;;;1.77;0.90;;;;;;;11.32;88.56;90931.16;4998034;28;20025;-86
2021/06/24 01:52:49;;;;;;;2.45;0.95;;;;;;;11.45;88.20;90924.81;4997123;28;20401;-86
2021/06/24 01:55:32;;;;;;;1.50;1.00;;;;;;;11.33;88.98;90918.84;4983882;28;20025;-86
2021/06/24 01:58:10;;;;;;;1.17;0.82;;;;;;;11.27;88.87;90922.78;5000452;28;20041;-86
2021/06/24 02:00:56;;;;;;;3.53;1.25;;;;;;;11.27;88.85;90930.63;4984073;28;20025;-86
2021/06/24 02:03:37;;;;;;;2.08;1.00;;;;;;;11.31;88.34;90926.25;4979347;28;20113;-86
2021/06/24 02:06:15;;;;;;;3.92;0.77;;;;;;;11.20;87.85;90915.53;4980596;28;20480;-86
2021/06/24 02:08:51;;;;;;;1.33;0.80;;;;;;;11.18;88.20;90912.50;5001706;28;20025;-88
2021/06/24 02:11:27;;;;;;;2.97;0.80;;;;;;;11.06;88.95;90915.13;4988213;28;20021;-87
2021/06/24 02:14:04;;;;;;;1.48;0.88;;;;;;;11.08;88.55;90905.13;4983073;28;20018;-86
2021/06/24 02:16:44;;;;;;;2.45;1.27;;;;;;;10.95;88.99;90891.38;5019720;23;20042;-86
2021/06/24 02:19:26;;;;;;;9.15;1.50;;;;;;;10.98;89.18;90891.47;4962070;28;20054;-86
2021/06/24 02:22:04;;;;;;;42.92;2.10;;;;;;;10.86;89.35;90886.28;4965022;28;20113;-87
2021/06/24 02:24:46;;;;;;;19.88;1.38;;;;;;;10.82;89.52;90901.06;4996552;28;20033;-87
2021/06/24 02:27:24;;;;;;;3.45;1.20;;;;;;;10.82;89.56;90898.47;5003614;28;20037;-87
2021/06/24 02:29:50;;;;;;;1.88;1.27;;;;;;;10.80;89.50;90889.44;4996903;28;20026;-87
2021/06/24 02:32:28;;;;;;;2.72;1.10;;;;;;;10.84;89.82;90891.06;5012539;28;20029;-86
2021/06/24 02:34:53;;;;;;;1.65;1.13;;;;;;;10.89;89.37;90883.03;4996654;28;20017;-86
2021/06/24 02:37:33;;;;;;;4.35;0.90;;;;;;;10.87;89.69;90876.63;4995978;28;20399;-87
2021/06/24 02:40:13;;;;;;;1.73;1.17;;;;;;;10.77;89.91;90864.78;4996179;28;20034;-87
2021/06/24 02:42:53;;;;;;;3.42;1.10;;;;;;;10.92;89.06;90874.56;5011796;28;20026;-85
2021/06/24 02:45:31;;;;;;;2.15;1.10;;;;;;;10.80;89.45;90874.56;4992792;28;20030;-87
2021/06/24 02:48:09;;;;;;;2.53;1.75;;;;;;;10.77;89.56;90864.78;4976296;28;20085;-87
2021/06/24 02:50:49;;;;;;;1.80;1.30;;;;;;;10.73;89.72;90869.16;4977283;28;20022;-87
2021/06/24 02:53:25;;;;;;;2.45;1.55;;;;;;;10.67;89.57;90860.81;4992319;28;20030;-86
2021/06/24 02:56:10;;;;;;;2.30;1.27;;;;;;;10.74;89.89;90868.84;4993611;28;20027;-87
2021/06/24 02:58:48;;;;;;;1.45;1.17;;;;;;;10.69;90.09;90874.25;4993825;28;20034;-87
2021/06/24 03:01:21;;;;;;;1.90;1.30;;;;;;;10.78;89.33;90868.94;4992081;28;20488;-86
2021/06/24 03:03:59;;;;;;;4.30;1.30;;;;;;;10.88;88.79;90865.84;4992142;28;20056;-87
2021/06/24 03:06:40;;;;;;;1.80;1.40;;;;;;;10.60;89.41;90854.63;4976971;28;20026;-87
2021/06/24 03:09:16;;;;;;;3.30;1.20;;;;;;;10.57;90.10;90855.31;4977612;28;20034;-87
2021/06/24 03:11:58;;;;;;;2.47;1.13;;;;;;;10.59;89.85;90868.75;4992342;28;20026;-87
2021/06/24 03:14:40;;;;;;;1.40;0.90;;;;;;;10.60;88.98;90880.69;4993447;28;20030;-87
2021/06/24 03:17:17;;;;;;;1.77;1.17;;;;;;;10.53;89.49;90868.22;4992096;28;20500;-87
2021/06/24 03:19:56;;;;;;;1.88;1.00;;;;;;;10.47;89.24;90864.31;4976506;28;20492;-85
2021/06/24 03:22:34;;;;;;;3.30;1.40;;;;;;;10.53;89.16;90866.38;4977144;28;20061;-87
2021/06/24 03:25:15;;;;;;;62.40;2.55;;;;;;;10.52;89.54;90867.44;4972903;28;20019;-87
2021/06/24 03:27:50;;;;;;;13.45;1.67;;;;;;;10.63;88.72;90867.75;4972906;28;20110;-86
2021/06/24 03:30:26;;;;;;;111.82;3.58;;;;;;;10.32;90.12;90876.16;4972177;28;20445;-86
2021/06/24 03:33:01;;;;;;;26.40;2.28;;;;;;;10.25;90.81;90870.72;4972285;28;20026;-86
2021/06/24 03:35:42;;;;;;;241.40;6.10;;;;;;;10.25;91.33;90865.50;4972494;28;20496;-87
2021/06/24 03:38:23;;;;;;;12.43;1.98;;;;;;;10.26;91.65;90869.66;4957734;28;20035;-86
2021/06/24 03:41:04;;;;;;;51.00;2.15;;;;;;;10.26;91.53;90867.81;4969067;28;20041;-86
2021/06/24 03:43:48;;;;;;;14.73;1.88;;;;;;;10.24;91.39;90875.13;5011718;28;20033;-86
2021/06/24 03:46:28;;;;;;;39.80;2.30;;;;;;;10.19;91.75;90869.41;5012407;28;20025;-87
2021/06/24 03:49:09;;;;;;;40.30;2.63;;;;;;;10.21;92.45;90877.63;5011632;28;20447;-87
2021/06/24 03:51:57;;;;;;;41.28;2.33;;;;;;;10.30;92.31;90883.53;4996230;28;20030;-86
2021/06/24 03:54:36;;;;;;;52.22;2.22;;;;;;;10.33;91.78;90882.13;5012667;28;20106;-87
2021/06/24 03:57:12;;;;;;;56.65;2.70;;;;;;;10.39;92.05;90884.19;4995826;28;20029;-87
2021/06/24 03:59:51;;;;;;;40.40;2.53;;;;;;;10.36;91.85;90886.69;4995842;28;20458;-85
2021/06/24 04:02:22;;;;;;;24.02;1.73;;;;;;;10.37;91.86;90888.97;5011612;28;20032;-87
2021/06/24 04:04:59;;;;;;;22.08;1.55;;;;;;;10.40;91.75;90890.91;5011240;28;20018;-87
2021/06/24 04:07:35;;;;;;;13.52;1.85;;;;;;;10.31;91.91;90885.03;4995848;28;20108;-86
2021/06/24 04:10:16;;;;;;;23.65;1.80;;;;;;;10.39;92.42;90886.81;5020433;28;20017;-88
2021/06/24 04:12:54;;;;;;;28.25;3.10;;;;;;;10.41;92.25;90874.19;5017062;28;20026;-86
2021/06/24 04:15:35;;;;;;;17.42;1.75;;;;;;;10.42;91.72;90880.91;4978814;28;20480;-85
2021/06/24 04:18:14;;;;;;;8.23;1.67;;;;;;;10.45;91.56;90876.91;4995637;28;20128;-86
2021/06/24 04:20:46;;;;;;;21.73;1.92;;;;;;;10.52;91.51;90879.72;5001496;28;20530;-86
2021/06/24 04:23:24;;;;;;;14.07;1.42;;;;;;;10.57;91.06;90881.34;4995367;28;20034;-86
2021/06/24 04:26:04;;;;;;;17.17;1.52;;;;;;;10.51;91.44;90871.16;4979527;28;20026;-86
2021/06/24 04:28:41;;;;;;;26.02;1.83;;;;;;;10.53;91.42;90876.81;4995149;28;20038;-86
2021/06/24 04:31:21;;;;;;;9.93;1.38;;;;;;;10.45;91.36;90864.63;4979872;28;20097;-87
2021/06/24 04:33:57;;;;;;;20.65;1.70;;;;;;;10.52;91.83;90861.47;4996942;28;20034;-87
2021/06/24 04:36:43;;;;;;;67.40;2.30;;;;;;;10.58;90.32;90860.16;4995259;28;20031;-87
2021/06/24 04:39:17;;;;;;;56.15;2.20;;;;;;;10.51;90.42;90858.13;4999287;28;20053;-86
2021/06/24 04:41:51;;;;;;;;;;;;;;;10.74;90.26;90857.63;5015172;28;20197;-87
2021/06/24 04:44:31;;;;;;;35.90;1.90;;;;;;;10.77;90.40;90857.72;5016035;28;19916;-87
2021/06/24 04:47:10;;;;;;;33.10;2.42;;;;;;;10.75;90.42;90867.00;5015050;28;20050;-87
2021/06/24 04:49:46;;;;;;;47.53;2.17;;;;;;;10.93;88.95;90857.81;4999418;28;20026;-87
2021/06/24 04:52:23;;;;;;;16.33;1.58;;;;;;;10.85;89.55;90865.75;4998912;28;20403;-86
2021/06/24 04:54:56;;;;;;;10.25;1.55;;;;;;;10.95;90.53;90873.13;4998961;28;20025;-87
2021/06/24 04:57:34;;;;;;;1.80;1.40;;;;;;;10.91;89.58;90875.63;5014368;28;20403;-87
2021/06/24 05:00:15;;;;;;;3.97;1.58;;;;;;;11.04;89.77;90881.56;4998395;28;20034;-87
2021/06/24 05:02:51;;;;;;;1.70;1.38;;;;;;;11.11;89.87;90881.00;4992438;28;20026;-86
2021/06/24 05:05:27;;;;;;;4.88;1.30;;;;;;;11.09;89.51;90867.53;4994740;28;20456;-87
2021/06/24 05:08:19;;;;;;;1.65;1.33;;;;;;;11.14;89.14;90872.53;4994690;28;20065;-87
2021/06/24 05:10:57;;;;;;;1.88;1.27;;;;;;;11.19;88.98;90867.81;4994265;28;20026;-88
2021/06/24 05:13:25;;;;;;;1.73;1.23;;;;;;;11.35;88.20;90873.09;4992196;28;20077;-88
2021/06/24 05:15:51;;;;;;;3.72;1.20;;;;;;;11.43;88.09;90866.97;4991790;28;20022;-88
2021/06/24 05:18:27;;;;;;;3.70;1.48;;;;;;;11.39;87.90;90867.97;4976917;28;20117;-89
2021/06/24 05:20:54;;;;;;;1.98;1.20;;;;;;;11.42;88.12;90865.44;4970045;28;20035;-88
2021/06/24 05:23:20;;;;;;;11.65;1.50;;;;;;;11.45;87.82;90867.41;4973686;28;20117;-88
2021/06/24 05:25:46;;;;;;;8.02;2.00;;;;;;;11.37;88.50;90860.47;4971500;28;20122;-88
2021/06/24 05:28:14;;;;;;;1.75;1.40;;;;;;;11.48;88.60;90861.50;4974178;28;20401;-87
2021/06/24 05:30:47;;;;;;;7.68;2.97;;;;;;;11.60;88.60;90849.50;4979624;28;20030;-87
2021/06/24 05:33:15;;;;;;;2.55;1.60;;;;;;;11.78;87.54;90847.31;4977554;28;20022;-88
2021/06/24 05:35:45;;;;;;;3.05;1.90;;;;;;;11.74;88.29;90852.44;4977427;28;20018;-88
2021/06/24 05:38:16;;;;;;;2.35;1.70;;;;;;;11.87;87.98;90848.69;4982372;28;20554;-88
2021/06/24 05:40:46;;;;;;;6.65;1.70;;;;;;;11.84;87.19;90851.97;4942328;28;20088;-88
2021/06/24 05:43:14;;;;;;;2.03;1.20;;;;;;;12.07;86.31;90859.97;4958387;28;20018;-88
2021/06/24 05:45:41;;;;;;;1.40;1.10;;;;;;;11.99;86.69;90862.78;4975107;28;20027;-87
2021/06/24 05:48:07;;;;;;;2.50;1.27;;;;;;;12.10;86.71;90863.78;4973821;28;20018;-88
2021/06/24 05:50:34;;;;;;;1.42;1.10;;;;;;;12.13;86.08;90861.25;4942637;28;20038;-89
2021/06/24 05:52:59;;;;;;;1.45;1.20;;;;;;;12.21;85.53;90867.38;4957583;28;20027;-88
2021/06/24 05:58:14;;;;;;;;;;;;;;;12.27;85.44;90867.91;4962776;28;20045;-87
2021/06/24 06:00:44;;;;;;;1.10;0.98;;;;;;;12.29;85.70;90866.44;5010180;28;19964;-88
2021/06/24 06:03:14;;;;;;;2.70;0.95;;;;;;;12.52;83.52;90865.84;4996969;28;20029;-88
2021/06/24 06:05:43;;;;;;;2.13;0.98;;;;;;;12.48;84.00;90878.06;4997205;28;20030;-88
2021/06/24 06:08:12;;;;;;;1.10;0.95;;;;;;;12.59;84.54;90882.44;5013168;28;20021;-88
2021/06/24 06:10:40;;;;;;;4.15;1.05;;;;;;;12.75;83.67;90886.88;4997526;28;20029;-89
2021/06/24 06:13:06;;;;;;;2.38;1.20;;;;;;;12.72;83.93;90885.72;4998468;28;20026;-88
2021/06/24 06:15:41;;;;;;;1.60;1.10;;;;;;;12.77;84.41;90882.06;4996674;28;20021;-88
2021/06/24 06:18:15;;;;;;;1.30;1.02;;;;;;;12.98;84.33;90881.75;4982966;28;20084;-88
2021/06/24 06:20:40;;;;;;;1.27;1.00;;;;;;;13.12;83.82;90880.19;4963125;28;20113;-89
2021/06/24 06:23:06;;;;;;;1.20;0.80;;;;;;;13.24;83.39;90883.78;4957642;28;20047;-89
2021/06/24 06:25:31;;;;;;;2.78;1.00;;;;;;;13.30;82.09;90888.41;4947649;28;20485;-88
2021/06/24 06:27:57;;;;;;;0.77;0.60;;;;;;;13.44;82.83;90892.41;4972922;28;20034;-89
2021/06/24 06:30:23;;;;;;;1.00;0.90;;;;;;;13.66;83.17;90891.69;4954694;28;20031;-88
2021/06/24 06:32:49;;;;;;;1.17;0.70;;;;;;;13.83;81.54;90895.72;4991979;28;20029;-88
2021/06/24 06:35:14;;;;;;;1.73;0.80;;;;;;;13.80;82.30;90897.19;4961000;28;20018;-88
2021/06/24 06:37:39;;;;;;;0.80;0.70;;;;;;;13.87;82.64;90896.56;4961778;28;20030;-88
2021/06/24 06:40:09;;;;;;;1.65;0.70;;;;;;;13.84;80.82;90900.63;4941885;28;20027;-89
2021/06/24 06:42:38;;;;;;;0.73;0.65;;;;;;;13.97;80.93;90895.22;4957035;28;20091;-88
2021/06/24 06:45:07;;;;;;;2.55;0.60;;;;;;;13.98;80.11;90902.72;4956867;28;20113;-89
2021/06/24 06:47:39;;;;;;;0.80;0.60;;;;;;;14.08;78.60;90909.25;4982269;28;20521;-88
2021/06/24 06:50:09;;;;;;;1.50;0.60;;;;;;;14.02;76.88;90910.66;4976368;28;20033;-87
2021/06/24 06:52:39;;;;;;;1.33;0.63;;;;;;;14.20;77.25;90919.56;4975619;28;20404;-87
2021/06/24 06:55:12;;;;;;;4.60;0.82;;;;;;;14.28;76.03;90926.44;4971880;28;20106;-88
2021/06/24 06:57:37;;;;;;;0.80;0.60;;;;;;;14.16;77.35;90934.47;4973042;28;20632;-88
2021/06/24 07:00:10;;;;;;;1.10;0.70;;;;;;;14.20;78.14;90935.28;4971745;28;20740;-88
2021/06/24 07:02:39;;;;;;;0.77;0.70;;;;;;;14.15;80.73;90925.09;4956926;28;20030;-88
2021/06/24 07:05:08;;;;;;;1.35;0.75;;;;;;;14.28;77.58;90936.19;4986082;28;20026;-87
2021/06/24 07:07:35;;;;;;;0.93;0.60;;;;;;;14.16;79.40;90934.47;4975590;28;20436;-86
2021/06/24 07:10:02;;;;;;;1.98;0.77;;;;;;;14.07;79.75;90944.44;4971675;28;20580;-87
2021/06/24 07:12:31;;;;;;;0.88;0.50;;;;;;;14.20;76.37;90942.38;4992948;28;20042;-88
2021/06/24 07:15:01;;;;;;;1.10;0.70;;;;;;;14.22;75.45;90948.06;4987213;28;20023;-86
2021/06/24 07:17:32;;;;;;;5.00;0.80;;;;;;;13.87;75.37;90949.69;4971545;28;20120;-88
2021/06/24 07:20:00;;;;;;;1.05;0.60;;;;;;;13.96;76.00;90956.59;4981336;28;20033;-88
2021/06/24 07:22:31;;;;;;;2.35;0.80;;;;;;;13.60;77.74;90948.03;4975595;28;20574;-87
2021/06/24 07:25:01;;;;;;;1.05;0.70;;;;;;;13.52;78.00;90952.41;4976925;28;20114;-87
2021/06/24 07:27:34;;;;;;;1.58;0.73;;;;;;;13.43;78.47;90946.63;4976068;28;20026;-87
2021/06/24 07:30:05;;;;;;;1.35;0.80;;;;;;;13.44;78.70;90947.38;4961263;28;20458;-88
2021/06/24 07:32:39;;;;;;;1.83;0.90;;;;;;;13.44;79.44;90952.59;4991076;28;20026;-88
2021/06/24 07:35:06;;;;;;;2.38;0.80;;;;;;;13.65;78.96;90955.66;5006727;28;20018;-90
2021/06/24 07:37:37;;;;;;;1.05;0.80;;;;;;;13.26;80.56;90947.78;5001019;28;20086;-89
2021/06/24 07:40:06;;;;;;;3.70;0.88;;;;;;;13.45;81.67;90957.50;4991558;28;20027;-86
2021/06/24 07:42:34;;;;;;;3.40;1.00;;;;;;;13.45;81.24;90954.13;4972121;28;20030;-89
2021/06/24 07:45:01;;;;;;;1.58;0.90;;;;;;;13.62;81.55;90956.31;4965350;28;20080;-87
2021/06/24 07:47:28;;;;;;;3.25;1.10;;;;;;;13.55;81.30;90953.56;4975945;28;20018;-87
2021/06/24 07:49:58;;;;;;;1.27;0.90;;;;;;;13.61;82.21;90960.81;4998313;28;20034;-87
2021/06/24 07:52:31;;;;;;;2.83;1.58;;;;;;;13.80;81.74;90969.75;4992368;28;20030;-87
2021/06/24 07:55:02;;;;;;;2.83;1.45;;;;;;;13.76;81.23;90953.97;4966762;28;20034;-87
2021/06/24 07:57:31;;;;;;;2.92;1.42;;;;;;;13.83;80.63;90961.97;4955998;28;20053;-88
2021/06/24 07:59:59;;;;;;;2.30;1.40;;;;;;;13.66;80.91;90961.63;4955891;28;20050;-87
2021/06/24 08:02:24;;;;;;;3.80;1.50;;;;;;;13.74;81.76;90961.41;4972622;28;20106;-88
2021/06/24 08:04:50;;;;;;;2.95;1.70;;;;;;;13.87;81.03;90960.16;4971507;28;20033;-87
2021/06/24 08:07:16;;;;;;;2.33;1.23;;;;;;;13.75;80.43;90957.72;4974950;28;20037;-87
2021/06/24 08:09:42;;;;;;;1.50;1.10;;;;;;;13.86;81.58;90950.06;4991242;28;20022;-88
2021/06/24 08:12:08;;;;;;;2.42;1.30;;;;;;;13.86;81.99;90961.28;4975175;28;20487;-88
2021/06/24 08:14:33;;;;;;;2.40;1.27;;;;;;;13.89;81.50;90959.84;4975023;28;20089;-87
2021/06/24 08:16:58;;;;;;;2.38;1.40;;;;;;;13.86;81.80;90953.41;4999503;23;20714;-87
2021/06/24 08:19:24;;;;;;;2.53;1.25;;;;;;;13.75;81.26;90960.31;4952025;28;20042;-86
2021/06/24 08:21:56;;;;;;;2.88;1.45;;;;;;;13.87;81.64;90954.94;4965047;28;20663;-86
2021/06/24 08:24:22;;;;;;;2.53;0.90;;;;;;;13.75;79.92;90965.56;4960795;28;20057;-87
2021/06/24 08:26:47;;;;;;;4.57;1.23;;;;;;;13.77;81.44;90968.59;4942962;28;20022;-87
2021/06/24 08:29:18;;;;;;;3.45;1.25;;;;;;;13.64;81.75;90962.00;4959213;28;20031;-86
2021/06/24 08:31:43;;;;;;;2.92;1.10;;;;;;;13.77;81.01;90965.97;4958508;28;20033;-86
2021/06/24 08:34:09;;;;;;;1.50;1.20;;;;;;;13.76;81.25;90969.69;4958844;28;20030;-85
2021/06/24 08:36:37;;;;;;;2.60;1.30;;;;;;;13.55;81.31;90966.66;4942745;28;20039;-86
2021/06/24 08:39:09;;;;;;;1.88;1.23;;;;;;;13.78;81.87;90970.13;4985186;28;20026;-86
2021/06/24 08:41:37;;;;;;;2.60;1.55;;;;;;;13.90;80.68;90973.69;4974675;28;20480;-87
2021/06/24 08:44:03;;;;;;;3.45;1.48;;;;;;;14.01;79.03;90969.41;4959041;28;20026;-86
2021/06/24 08:46:28;;;;;;;2.47;1.65;;;;;;;13.94;79.17;90974.50;4941535;28;20054;-85
2021/06/24 08:48:55;;;;;;;2.72;1.70;;;;;;;13.85;80.11;90978.09;4968822;28;20022;-87
2021/06/24 08:51:24;;;;;;;3.20;1.77;;;;;;;14.09;77.93;90978.91;4941858;28;20045;-86
2021/06/24 08:53:50;;;;;;;2.63;1.42;;;;;;;14.06;77.37;90984.81;4974401;28;20049;-88
2021/06/24 08:56:19;;;;;;;2.47;1.58;;;;;;;14.15;78.18;90974.13;4953305;28;20018;-86
2021/06/24 08:58:51;;;;;;;2.20;1.10;;;;;;;14.27;77.53;90977.34;4961771;28;20041;-87
2021/06/24 09:01:19;;;;;;;2.63;0.90;;;;;;;14.45;76.83;90976.88;4981140;28;20018;-86
2021/06/24 09:03:49;;;;;;;1.50;0.85;;;;;;;14.45;74.17;90982.13;4965976;28;20054;-85
2021/06/24 09:06:16;;;;;;;1.95;0.90;;;;;;;14.45;77.27;90972.44;4983207;28;20018;-85
2021/06/24 09:08:46;;;;;;;1.50;0.80;;;;;;;14.38;74.65;90976.75;4965826;28;20040;-87
2021/06/24 09:11:18;;;;;;;3.05;1.00;;;;;;;14.53;76.92;90978.56;4964643;28;20391;-85
2021/06/24 09:13:46;;;;;;;2.90;0.95;;;;;;;14.58;75.15;90986.88;4990030;28;20029;-86
2021/06/24 09:16:24;;;;;;;1.58;0.95;;;;;;;14.59;75.81;90987.63;4984012;28;20132;-86
2021/06/24 09:18:50;;;;;;;1.88;0.90;;;;;;;14.65;76.01;90985.50;4998794;28;20066;-86
2021/06/24 09:21:26;;;;;;;1.00;0.73;;;;;;;14.66;75.53;90979.13;4980750;28;20030;-87
2021/06/24 09:23:57;;;;;;;2.53;0.70;;;;;;;14.47;73.76;90982.53;4981110;28;20029;-86
2021/06/24 09:26:22;;;;;;;1.55;0.80;;;;;;;14.50;74.06;90984.50;4965756;28;20022;-86
2021/06/24 09:28:53;;;;;;;2.30;1.00;;;;;;;14.70;76.24;90972.84;4960651;28;20034;-87
2021/06/24 09:31:29;;;;;;;3.63;0.93;;;;;;;14.76;75.26;90970.66;4961676;28;20040;-86
2021/06/24 09:34:05;;;;;;;1.20;0.80;;;;;;;14.77;74.62;90962.47;4946337;28;20022;-86
2021/06/24 09:36:35;;;;;;;1.35;0.80;;;;;;;14.78;71.63;90943.00;4947112;28;20018;-87
2021/06/24 09:39:11;;;;;;;1.20;0.80;;;;;;;14.87;72.24;90952.47;4987746;28;20031;-87
2021/06/24 09:41:38;;;;;;;1.30;0.80;;;;;;;14.71;74.35;90952.63;4962131;28;20111;-87
2021/06/24 09:44:21;;;;;;;1.20;0.80;;;;;;;14.85;74.12;90957.31;4960735;28;20057;-87
2021/06/24 09:46:47;;;;;;;1.40;0.80;;;;;;;14.97;75.24;90949.25;4960891;28;20041;-86
2021/06/24 09:49:28;;;;;;;1.20;0.68;;;;;;;15.05;72.32;90946.38;4966783;28;20060;-86
2021/06/24 09:51:54;;;;;;;3.33;0.80;;;;;;;15.21;73.29;90953.31;4964326;28;20030;-87
2021/06/24 09:54:43;;;;;;;1.20;0.80;;;;;;;15.22;72.92;90950.34;4979987;28;20035;-87
2021/06/24 09:57:11;;;;;;;2.78;0.80;;;;;;;15.43;70.63;90941.22;4965369;28;20025;-87
2021/06/24 09:59:39;;;;;;;0.80;0.70;;;;;;;15.65;72.62;90950.13;4964999;28;20037;-86
2021/06/24 10:02:13;;;;;;;1.90;0.90;;;;;;;16.00;75.22;90940.03;4996885;28;20021;-87
2021/06/24 10:04:41;;;;;;;1.13;0.70;;;;;;;16.11;70.69;90944.63;4996610;28;20024;-86
2021/06/24 10:07:10;;;;;;;3.08;0.70;;;;;;;15.86;67.78;90945.13;4964467;28;20046;-87
2021/06/24 10:09:38;;;;;;;1.00;0.55;;;;;;;15.61;67.30;90947.44;4983489;28;20045;-86
2021/06/24 10:12:08;;;;;;;1.58;0.70;;;;;;;15.88;73.43;90944.78;5002645;28;20028;-87
2021/06/24 10:14:35;;;;;;;1.00;0.70;;;;;;;16.05;72.18;90944.22;5017578;28;20022;-88
2021/06/24 10:17:03;;;;;;;1.17;0.77;;;;;;;16.14;70.84;90943.91;5001764;28;20041;-87
2021/06/24 10:19:33;;;;;;;1.00;0.70;;;;;;;16.34;72.55;90941.88;4976932;28;20026;-88
2021/06/24 10:22:05;;;;;;;0.88;0.50;;;;;;;16.59;69.45;90939.44;4990285;28;20072;-87
2021/06/24 10:24:58;;;;;;;1.67;0.65;;;;;;;16.60;67.31;90940.94;4964623;28;20025;-87
2021/06/24 10:27:31;;;;;;;0.90;0.60;;;;;;;16.78;63.98;90935.84;4996187;28;20022;-87
2021/06/24 10:30:07;;;;;;;0.85;0.63;;;;;;;16.95;64.19;90933.34;4963556;28;20026;-87
2021/06/24 10:32:33;;;;;;;1.45;0.70;;;;;;;17.20;64.38;90936.13;4981059;28;20037;-86
2021/06/24 10:35:01;;;;;;;1.13;0.50;;;;;;;17.30;60.65;90936.56;4979273;28;20465;-86
2021/06/24 10:37:29;;;;;;;1.00;0.70;;;;;;;17.42;63.56;90933.63;4964179;28;20022;-87
2021/06/24 10:39:57;;;;;;;0.80;0.57;;;;;;;17.49;63.29;90933.69;4960260;28;20037;-87
2021/06/24 10:42:24;;;;;;;0.95;0.70;;;;;;;17.43;63.47;90933.25;4976619;28;20022;-87
2021/06/24 10:44:55;;;;;;;1.52;0.70;;;;;;;17.46;62.32;90937.03;4976613;28;20026;-87
2021/06/24 10:47:32;;;;;;;1.05;0.70;;;;;;;17.43;60.48;90937.78;4984813;28;20029;-87
2021/06/24 10:50:27;;;;;;;0.90;0.50;;;;;;;17.52;61.98;90942.69;4975867;28;20073;-87
2021/06/24 10:52:56;;;;;;;4.97;0.60;;;;;;;17.62;61.17;90942.75;4975996;28;20398;-87
2021/06/24 10:55:32;;;;;;;0.70;0.50;;;;;;;17.86;60.56;90940.63;4960179;28;20117;-87
2021/06/24 10:58:02;;;;;;;2.75;1.10;;;;;;;17.88;59.62;90933.84;4993527;28;20041;-87
2021/06/24 11:00:44;;;;;;;2.70;1.10;;;;;;;17.91;60.30;90942.88;4943746;28;20026;-87
2021/06/24 11:03:18;;;;;;;1.95;0.80;;;;;;;17.56;59.46;90946.09;4959705;28;20034;-86
2021/06/24 11:05:44;;;;;;;;;;;;;;;17.47;57.96;90946.44;4976089;28;20014;-86
2021/06/24 11:08:11;;;;;;;4.45;0.80;;;;;;;17.48;58.82;90950.59;4975718;28;20381;-86
2021/06/24 11:10:57;;;;;;;1.38;0.85;;;;;;;17.45;58.79;90953.94;4943618;28;20030;-87
2021/06/24 11:13:38;;;;;;;1.80;0.68;;;;;;;17.52;59.97;90953.25;4975488;28;20535;-87
2021/06/24 11:16:08;;;;;;;1.60;0.73;;;;;;;17.49;59.11;90948.69;4993091;28;20018;-86
2021/06/24 11:18:33;;;;;;;1.40;0.90;;;;;;;17.42;59.83;90955.47;4959311;28;20109;-87
2021/06/24 11:21:00;;;;;;;2.40;0.80;;;;;;;17.51;59.62;90955.13;4992756;28;20109;-87
2021/06/24 11:23:31;;;;;;;1.40;0.80;;;;;;;17.56;62.19;90951.38;4959710;28;20037;-87
2021/06/24 11:26:06;;;;;;;4.35;1.00;;;;;;;17.73;58.84;90952.56;4971450;28;20041;-87
2021/06/24 11:28:46;;;;;;;4.57;0.90;;;;;;;17.55;58.69;90947.97;4995044;28;20513;-86
2021/06/24 11:31:14;;;;;;;2.47;0.90;;;;;;;17.74;58.93;90954.09;4978777;28;20021;-86
2021/06/24 11:33:47;;;;;;;3.67;0.80;;;;;;;17.60;59.38;90946.91;4960835;28;20029;-86
2021/06/24 11:36:16;;;;;;;4.10;0.95;;;;;;;17.82;58.93;90945.13;4976366;28;20054;-87
2021/06/24 11:38:45;;;;;;;1.75;0.80;;;;;;;17.71;58.97;90944.31;4959702;28;20538;-87
2021/06/24 11:41:13;;;;;;;2.92;1.00;;;;;;;17.83;60.34;90949.25;4958805;28;20419;-86
2021/06/24 11:43:40;;;;;;;1.52;0.77;;;;;;;17.86;59.58;90949.28;4975335;28;20052;-87
2021/06/24 11:46:08;;;;;;;2.80;1.00;;;;;;;17.74;60.59;90935.63;4959385;28;20022;-85
2021/06/24 11:48:35;;;;;;;1.92;0.80;;;;;;;17.82;58.73;90942.50;4942749;28;20061;-87
2021/06/24 12:00:42;;;;;;;2.17;1.00;;;;;;;18.13;57.75;90949.75;4982343;28;20065;-86
2021/06/24 12:05:07;;;;;;;1.35;0.80;;;;;;;18.31;56.28;90943.75;4997563;28;20026;-85
2021/06/24 12:07:37;;;;;;;3.55;1.02;;;;;;;18.75;55.10;90940.78;4980544;28;20384;-85
2021/06/24 12:10:10;;;;;;;2.90;0.75;;;;;;;18.75;54.08;90940.03;4980163;28;20022;-86
2021/06/24 12:12:40;;;;;;;0.97;0.60;;;;;;;19.00;53.79;90940.78;4963927;28;20503;-85
2021/06/24 12:15:09;;;;;;;1.10;0.77;;;;;;;18.97;53.63;90936.25;4973896;28;20264;-85
2021/06/24 12:17:38;;;;;;;1.13;0.60;;;;;;;19.13;51.20;90927.97;4972842;28;20030;-86